Time;durP1;ratioP1;P1;durP2;ratioP2;P2;SDS_P1;SDS_P2;PMS_P1;PMS_P2;Temp;Humidity;BMP_temperature;BMP_pressure;BME280_temperature;BME280_humidity;BME280_pressure;Samples;Min_cycle;Max_cycle;Signal;HPM_P1;HPM_P2
2021/03/13 00:00:13;;;;;;;10.77;3.53;;;;;;;;;;5050292;28;20186;-72
2021/03/13 00:02:39;;;;;;;6.30;3.03;;;;;;;;;;5067422;28;20228;-72
2021/03/13 00:05:06;;;;;;;10.93;3.33;;;;;;;;;;5054191;28;20293;-71
2021/03/13 00:07:32;;;;;;;9.37;3.33;;;;;;;;;;5055179;28;20190;-71
2021/03/13 00:09:57;;;;;;;13.57;3.27;;;;;;;;;;5055439;28;20669;-72
2021/03/13 00:12:23;;;;;;;6.90;3.87;;;;;;;;;;5053780;28;20182;-72
2021/03/13 00:14:49;;;;;;;6.83;2.80;;;;;;;;;;5053905;28;20682;-71
2021/03/13 00:17:15;;;;;;;7.93;3.43;;;;;;;;;;5060458;28;20224;-72
2021/03/13 00:19:41;;;;;;;7.23;3.37;;;;;;;;;;5074393;28;20181;-72
2021/03/13 00:22:07;;;;;;;5.47;3.10;;;;;;;;;;5073549;28;20174;-72
2021/03/13 00:24:33;;;;;;;5.37;3.50;;;;;;;;;;5075357;28;20253;-71
2021/03/13 00:26:59;;;;;;;6.27;3.60;;;;;;;;;;5073670;28;20170;-72
2021/03/13 00:29:25;;;;;;;7.60;3.37;;;;;;;;;;5073208;28;20665;-71
2021/03/13 00:31:53;;;;;;;6.27;3.20;;;;;;;;;;5073232;28;20184;-72
2021/03/13 00:34:20;;;;;;;5.40;3.10;;;;;;;;;;5074747;28;20291;-71
2021/03/13 00:36:46;;;;;;;6.63;3.20;;;;;;;;;;5074762;28;20196;-72
2021/03/13 00:39:12;;;;;;;7.40;3.00;;;;;;;;;;5074824;28;20181;-72
2021/03/13 00:41:38;;;;;;;12.23;3.20;;;;;;;;;;5074576;28;20186;-71
2021/03/13 00:44:04;;;;;;;8.43;2.80;;;;;;;;;;5072689;28;20213;-72
2021/03/13 00:46:30;;;;;;;8.97;2.90;;;;;;;;;;5074657;28;20182;-71
2021/03/13 00:48:56;;;;;;;9.27;2.73;;;;;;;;;;5074567;28;20275;-71
2021/03/13 00:51:22;;;;;;;6.60;2.83;;;;;;;;;;5074512;28;20188;-72
2021/03/13 00:53:48;;;;;;;4.60;2.57;;;;;;;;;;5073612;28;20314;-72
2021/03/13 00:56:14;;;;;;;3.17;2.07;;;;;;;;;;5074289;28;20185;-72
2021/03/13 00:58:40;;;;;;;6.33;2.67;;;;;;;;;;5074539;28;20178;-72
2021/03/13 01:01:06;;;;;;;7.57;3.20;;;;;;;;;;5073192;28;20185;-73
2021/03/13 01:03:32;;;;;;;5.23;2.80;;;;;;;;;;5072105;28;20225;-72
2021/03/13 01:05:58;;;;;;;8.70;3.03;;;;;;;;;;5073099;28;20188;-71
2021/03/13 01:08:24;;;;;;;7.30;2.83;;;;;;;;;;5072933;28;20362;-71
2021/03/13 01:10:50;;;;;;;11.30;2.70;;;;;;;;;;5072633;28;20711;-71
2021/03/13 01:13:16;;;;;;;8.30;2.67;;;;;;;;;;5073822;28;20216;-71
2021/03/13 01:15:44;;;;;;;4.30;2.17;;;;;;;;;;5072225;28;20201;-71
2021/03/13 01:18:09;;;;;;;8.03;2.70;;;;;;;;;;5052767;28;20182;-72
2021/03/13 01:20:36;;;;;;;8.00;2.70;;;;;;;;;;5053961;28;20189;-71
2021/03/13 01:23:02;;;;;;;8.20;2.43;;;;;;;;;;5053639;28;20252;-71
2021/03/13 01:25:28;;;;;;;7.43;2.43;;;;;;;;;;5052633;28;20220;-72
2021/03/13 01:27:53;;;;;;;8.70;2.70;;;;;;;;;;5053828;28;20702;-71
2021/03/13 01:30:21;;;;;;;9.20;2.40;;;;;;;;;;5053944;28;20186;-72
2021/03/13 01:32:47;;;;;;;8.80;2.40;;;;;;;;;;5054544;28;20181;-73
2021/03/13 01:35:13;;;;;;;8.53;2.73;;;;;;;;;;5053666;28;20206;-72
2021/03/13 01:37:39;;;;;;;9.07;2.80;;;;;;;;;;5068895;28;20210;-71
2021/03/13 01:40:06;;;;;;;6.63;2.77;;;;;;;;;;5052396;28;20259;-72
2021/03/13 01:42:32;;;;;;;9.47;2.87;;;;;;;;;;5053390;28;20185;-69
2021/03/13 01:44:58;;;;;;;9.70;2.90;;;;;;;;;;5053621;28;20576;-69
2021/03/13 01:47:25;;;;;;;7.57;2.80;;;;;;;;;;5069074;28;20178;-69
2021/03/13 01:49:51;;;;;;;11.97;2.73;;;;;;;;;;5053289;28;20190;-69
2021/03/13 01:52:17;;;;;;;11.00;2.90;;;;;;;;;;5051866;28;20269;-72
2021/03/13 01:54:44;;;;;;;7.17;2.77;;;;;;;;;;5051879;28;20218;-72
2021/03/13 01:57:10;;;;;;;8.53;3.00;;;;;;;;;;5052101;28;20178;-72
2021/03/13 01:59:36;;;;;;;5.90;2.23;;;;;;;;;;5052096;28;20177;-72
2021/03/13 02:02:05;;;;;;;11.67;2.80;;;;;;;;;;5052807;28;20181;-72
2021/03/13 02:04:31;;;;;;;9.13;2.70;;;;;;;;;;5052962;28;20197;-71
2021/03/13 02:07:15;;;;;;;12.40;2.37;;;;;;;;;;5053093;28;20178;-71
2021/03/13 02:09:50;;;;;;;5.73;2.20;;;;;;;;;;5051871;28;20277;-71
2021/03/13 02:12:20;;;;;;;5.60;2.07;;;;;;;;;;5068103;28;20220;-72
2021/03/13 02:14:55;;;;;;;6.33;2.70;;;;;;;;;;5051648;28;20213;-72
2021/03/13 02:17:29;;;;;;;9.10;3.10;;;;;;;;;;5082331;28;20181;-72
2021/03/13 02:20:13;;;;;;;6.80;2.60;;;;;;;;;;5051768;28;20181;-71
2021/03/13 02:22:39;;;;;;;10.30;3.00;;;;;;;;;;5051573;28;20174;-71
2021/03/13 02:25:08;;;;;;;7.50;2.40;;;;;;;;;;5052771;28;20667;-72
2021/03/13 02:27:41;;;;;;;10.30;2.53;;;;;;;;;;5052273;28;20257;-72
2021/03/13 02:30:14;;;;;;;6.40;2.70;;;;;;;;;;5051580;28;20178;-71
2021/03/13 02:32:43;;;;;;;7.07;3.03;;;;;;;;;;5051079;28;20662;-71
2021/03/13 02:35:11;;;;;;;4.77;2.47;;;;;;;;;;5077111;28;20226;-71
2021/03/13 02:37:38;;;;;;;6.80;2.77;;;;;;;;;;5051350;28;20181;-72
2021/03/13 02:40:05;;;;;;;8.50;2.93;;;;;;;;;;5052649;28;20182;-72
2021/03/13 02:42:31;;;;;;;8.37;3.50;;;;;;;;;;5050863;28;20639;-71
2021/03/13 02:44:57;;;;;;;9.17;3.30;;;;;;;;;;5051973;28;20198;-72
2021/03/13 02:47:23;;;;;;;5.80;3.13;;;;;;;;;;5067917;28;20647;-71
2021/03/13 02:49:49;;;;;;;7.23;3.80;;;;;;;;;;5065034;28;20330;-72
2021/03/13 02:52:15;;;;;;;7.63;3.50;;;;;;;;;;5054313;28;20242;-72
2021/03/13 02:54:43;;;;;;;7.60;3.20;;;;;;;;;;5071337;28;20298;-72
2021/03/13 02:57:09;;;;;;;8.13;2.80;;;;;;;;;;5070860;28;20187;-73
2021/03/13 02:59:35;;;;;;;8.27;2.60;;;;;;;;;;5072228;28;20250;-73
2021/03/13 03:02:01;;;;;;;4.97;2.50;;;;;;;;;;5070912;28;20223;-73
2021/03/13 03:04:27;;;;;;;7.40;2.37;;;;;;;;;;5070929;28;20201;-73
2021/03/13 03:06:55;;;;;;;4.50;2.10;;;;;;;;;;5068818;28;20189;-73
2021/03/13 03:09:21;;;;;;;4.67;2.57;;;;;;;;;;5070526;28;20201;-72
2021/03/13 03:11:47;;;;;;;5.30;2.77;;;;;;;;;;5070717;28;20548;-72
2021/03/13 03:14:15;;;;;;;4.33;3.10;;;;;;;;;;5070434;28;20214;-72
2021/03/13 03:16:41;;;;;;;7.83;2.83;;;;;;;;;;5063435;28;20569;-72
2021/03/13 03:19:07;;;;;;;6.83;3.10;;;;;;;;;;5050723;28;20633;-72
2021/03/13 03:21:33;;;;;;;9.23;3.40;;;;;;;;;;5051080;28;20592;-72
2021/03/13 03:23:59;;;;;;;8.07;3.77;;;;;;;;;;5050320;28;20554;-72
2021/03/13 03:26:25;;;;;;;8.40;3.93;;;;;;;;;;5051570;28;20654;-72
2021/03/13 03:28:51;;;;;;;5.70;3.87;;;;;;;;;;5050629;28;20655;-72
2021/03/13 03:31:17;;;;;;;8.00;4.10;;;;;;;;;;5051426;28;20895;-72
2021/03/13 03:33:43;;;;;;;5.37;3.70;;;;;;;;;;5069797;28;20600;-72
2021/03/13 03:36:09;;;;;;;5.93;4.17;;;;;;;;;;5070094;28;20212;-72
2021/03/13 03:38:37;;;;;;;5.23;3.60;;;;;;;;;;5074980;28;20185;-72
2021/03/13 03:41:03;;;;;;;7.00;4.20;;;;;;;;;;5060454;28;20260;-72
2021/03/13 03:43:34;;;;;;;8.77;4.03;;;;;;;;;;5060083;28;20209;-72
2021/03/13 03:46:01;;;;;;;7.97;4.70;;;;;;;;;;5077132;28;20227;-72
2021/03/13 03:48:27;;;;;;;5.27;3.47;;;;;;;;;;5063916;28;20208;-72
2021/03/13 03:50:52;;;;;;;5.60;4.10;;;;;;;;;;5057041;28;20181;-72
2021/03/13 03:53:23;;;;;;;5.30;4.30;;;;;;;;;;5057581;28;20709;-72
2021/03/13 03:55:49;;;;;;;5.37;4.03;;;;;;;;;;5056975;28;20706;-72
2021/03/13 03:58:26;;;;;;;5.33;4.30;;;;;;;;;;5056968;28;20204;-72
2021/03/13 04:00:52;;;;;;;7.40;4.13;;;;;;;;;;5056911;28;20211;-72
2021/03/13 04:03:18;;;;;;;5.63;4.23;;;;;;;;;;5057654;28;20201;-72
2021/03/13 04:05:44;;;;;;;7.47;4.43;;;;;;;;;;5056793;28;20170;-72
2021/03/13 04:08:11;;;;;;;5.90;3.83;;;;;;;;;;5056888;28;20192;-72
2021/03/13 04:10:36;;;;;;;9.40;4.07;;;;;;;;;;5056874;28;20189;-72
2021/03/13 04:13:02;;;;;;;5.47;4.17;;;;;;;;;;5056602;28;20181;-72
2021/03/13 04:15:28;;;;;;;5.50;3.40;;;;;;;;;;5058039;28;20213;-72
2021/03/13 04:17:54;;;;;;;5.90;3.80;;;;;;;;;;5068530;28;20192;-72
2021/03/13 04:20:20;;;;;;;6.70;4.00;;;;;;;;;;5076634;28;20177;-72
2021/03/13 04:22:47;;;;;;;6.93;3.73;;;;;;;;;;5077737;28;20648;-72
2021/03/13 04:25:13;;;;;;;4.50;3.40;;;;;;;;;;5076775;28;20284;-72
2021/03/13 04:27:44;;;;;;;4.80;3.43;;;;;;;;;;5060112;28;20191;-73
2021/03/13 04:30:11;;;;;;;5.33;3.77;;;;;;;;;;5076875;28;20181;-73
2021/03/13 04:32:37;;;;;;;5.20;3.50;;;;;;;;;;5075824;28;20658;-73
2021/03/13 04:35:03;;;;;;;5.80;3.43;;;;;;;;;;5075848;28;20219;-73
2021/03/13 04:37:30;;;;;;;7.37;3.70;;;;;;;;;;5076526;28;20231;-73
2021/03/13 04:39:56;;;;;;;4.47;3.70;;;;;;;;;;5076812;28;20172;-72
2021/03/13 04:42:22;;;;;;;7.63;4.13;;;;;;;;;;5059677;28;20811;-72
2021/03/13 04:44:48;;;;;;;4.83;3.80;;;;;;;;;;5077609;28;20205;-72
2021/03/13 04:47:14;;;;;;;4.70;4.03;;;;;;;;;;5076611;28;20259;-72
2021/03/13 04:49:40;;;;;;;5.80;4.43;;;;;;;;;;5071281;28;20189;-72
2021/03/13 04:52:06;;;;;;;6.17;4.17;;;;;;;;;;5074002;28;20196;-72
2021/03/13 04:54:33;;;;;;;5.20;3.90;;;;;;;;;;5072903;28;20216;-72
2021/03/13 04:56:59;;;;;;;5.10;3.50;;;;;;;;;;5074489;28;20217;-72
2021/03/13 04:59:25;;;;;;;5.67;3.87;;;;;;;;;;5070047;28;20193;-72
2021/03/13 05:01:51;;;;;;;5.33;3.80;;;;;;;;;;5053110;28;20185;-72
2021/03/13 05:04:17;;;;;;;4.43;3.53;;;;;;;;;;5077808;28;20294;-72
2021/03/13 05:06:43;;;;;;;4.47;3.63;;;;;;;;;;5093373;28;20184;-72
2021/03/13 05:09:09;;;;;;;6.20;3.80;;;;;;;;;;5094456;28;20193;-72
2021/03/13 05:11:35;;;;;;;4.50;3.50;;;;;;;;;;5093270;28;20660;-72
2021/03/13 05:14:01;;;;;;;4.20;3.40;;;;;;;;;;5092865;28;20280;-72
2021/03/13 05:16:28;;;;;;;4.40;3.00;;;;;;;;;;5060254;28;20235;-72
2021/03/13 05:18:54;;;;;;;5.20;2.80;;;;;;;;;;5052757;28;20182;-72
2021/03/13 05:21:19;;;;;;;3.80;2.77;;;;;;;;;;5052821;28;20201;-73
2021/03/13 05:23:45;;;;;;;4.30;2.20;;;;;;;;;;5053726;28;20348;-72
2021/03/13 05:26:11;;;;;;;5.53;2.60;;;;;;;;;;5053917;28;20182;-72
2021/03/13 05:28:37;;;;;;;4.90;2.30;;;;;;;;;;5069326;28;20188;-72
2021/03/13 05:31:03;;;;;;;2.10;1.90;;;;;;;;;;5054742;28;20190;-72
2021/03/13 05:33:29;;;;;;;2.10;1.80;;;;;;;;;;5053371;28;20292;-72
2021/03/13 05:35:55;;;;;;;4.47;2.07;;;;;;;;;;5053623;28;20259;-72
2021/03/13 05:38:21;;;;;;;2.60;1.87;;;;;;;;;;5052486;28;20170;-72
2021/03/13 05:40:47;;;;;;;3.70;1.87;;;;;;;;;;5071962;28;20674;-73
2021/03/13 05:43:13;;;;;;;2.97;2.00;;;;;;;;;;5071865;28;20213;-72
2021/03/13 05:45:42;;;;;;;5.60;1.90;;;;;;;;;;5073512;28;20191;-72
2021/03/13 05:48:11;;;;;;;3.40;1.90;;;;;;;;;;5072536;28;20272;-73
2021/03/13 05:50:37;;;;;;;2.37;1.70;;;;;;;;;;5072221;28;20177;-73
2021/03/13 05:53:04;;;;;;;2.80;1.77;;;;;;;;;;5052380;28;20196;-73
2021/03/13 05:55:30;;;;;;;1.67;1.43;;;;;;;;;;5053331;28;20686;-73
2021/03/13 05:57:56;;;;;;;3.13;1.47;;;;;;;;;;5068747;28;20181;-73
2021/03/13 06:00:22;;;;;;;1.97;1.33;;;;;;;;;;5051901;28;20174;-73
2021/03/13 06:02:49;;;;;;;2.60;1.50;;;;;;;;;;5051745;28;20174;-73
2021/03/13 06:05:15;;;;;;;2.83;1.50;;;;;;;;;;5053142;28;20273;-73
2021/03/13 06:07:42;;;;;;;3.50;1.67;;;;;;;;;;5053087;28;20197;-73
2021/03/13 06:10:08;;;;;;;2.23;1.30;;;;;;;;;;5053085;28;20182;-73
2021/03/13 06:12:34;;;;;;;1.43;1.30;;;;;;;;;;5054957;28;20679;-73
2021/03/13 06:15:00;;;;;;;1.20;1.10;;;;;;;;;;5065595;28;20212;-73
2021/03/13 06:17:26;;;;;;;1.77;1.30;;;;;;;;;;5072308;28;20180;-73
2021/03/13 06:19:56;;;;;;;1.30;1.20;;;;;;;;;;5072576;28;20203;-73
2021/03/13 06:22:37;;;;;;;2.43;1.10;;;;;;;;;;5067371;28;20223;-72
2021/03/13 06:25:22;;;;;;;3.70;1.40;;;;;;;;;;5068109;28;20201;-72
2021/03/13 06:28:00;;;;;;;1.20;1.10;;;;;;;;;;5067413;28;20305;-72
2021/03/13 06:30:30;;;;;;;3.53;1.37;;;;;;;;;;5066767;28;20185;-73
2021/03/13 06:32:56;;;;;;;2.00;1.40;;;;;;;;;;5070345;28;20781;-73
2021/03/13 06:35:26;;;;;;;1.70;1.23;;;;;;;;;;5070894;28;20201;-73
2021/03/13 06:37:56;;;;;;;2.90;1.30;;;;;;;;;;5072384;28;20231;-73
2021/03/13 06:40:27;;;;;;;2.37;1.50;;;;;;;;;;5072576;28;20503;-72
2021/03/13 06:42:54;;;;;;;2.47;1.13;;;;;;;;;;5072073;28;20181;-72
2021/03/13 06:45:20;;;;;;;1.33;1.00;;;;;;;;;;5072405;28;20181;-72
2021/03/13 06:47:46;;;;;;;1.53;1.20;;;;;;;;;;5053564;28;20688;-72
2021/03/13 06:50:16;;;;;;;2.43;1.00;;;;;;;;;;5051000;28;20197;-72
2021/03/13 06:52:46;;;;;;;2.27;1.50;;;;;;;;;;5050775;28;20339;-72
2021/03/13 06:55:16;;;;;;;2.43;1.03;;;;;;;;;;5050858;28;20213;-72
2021/03/13 06:57:43;;;;;;;3.63;1.47;;;;;;;;;;5050994;28;20174;-72
2021/03/13 07:00:09;;;;;;;1.23;0.80;;;;;;;;;;5055005;28;20184;-72
2021/03/13 07:02:35;;;;;;;1.50;1.00;;;;;;;;;;5070729;28;20546;-71
2021/03/13 07:05:06;;;;;;;1.90;0.87;;;;;;;;;;5078712;28;20257;-72
2021/03/13 07:07:32;;;;;;;2.63;1.20;;;;;;;;;;5089337;28;20203;-72
2021/03/13 07:09:59;;;;;;;1.67;1.10;;;;;;;;;;5049284;28;20647;-72
2021/03/13 07:12:25;;;;;;;3.43;1.20;;;;;;;;;;5050075;28;20174;-72
2021/03/13 07:14:51;;;;;;;1.73;1.20;;;;;;;;;;5051742;28;20208;-72
2021/03/13 07:17:17;;;;;;;1.00;0.80;;;;;;;;;;5050436;28;20233;-72
2021/03/13 07:19:43;;;;;;;1.50;0.93;;;;;;;;;;5050746;28;20186;-72
2021/03/13 07:22:10;;;;;;;3.60;1.10;;;;;;;;;;5050594;28;20718;-72
2021/03/13 07:24:36;;;;;;;2.77;1.00;;;;;;;;;;5051463;28;20213;-72
2021/03/13 07:27:02;;;;;;;1.67;1.03;;;;;;;;;;5050647;28;20189;-74
2021/03/13 07:29:28;;;;;;;1.37;0.93;;;;;;;;;;5050675;28;20566;-71
2021/03/13 07:31:59;;;;;;;1.70;1.00;;;;;;;;;;5050397;28;20213;-71
2021/03/13 07:34:29;;;;;;;2.03;1.00;;;;;;;;;;5050047;28;20267;-72
2021/03/13 07:36:57;;;;;;;2.30;0.97;;;;;;;;;;5049993;28;20560;-73
2021/03/13 07:39:23;;;;;;;1.87;1.20;;;;;;;;;;5051631;28;20196;-71
2021/03/13 07:41:53;;;;;;;1.07;0.90;;;;;;;;;;5063430;28;20186;-73
2021/03/13 07:44:19;;;;;;;2.40;1.30;;;;;;;;;;5069261;28;20583;-76
2021/03/13 07:46:45;;;;;;;4.13;1.10;;;;;;;;;;5067993;28;20189;-75
2021/03/13 07:49:11;;;;;;;1.70;0.90;;;;;;;;;;5070552;28;20182;-74
2021/03/13 07:51:37;;;;;;;1.77;1.10;;;;;;;;;;5070451;28;20260;-75
2021/03/13 07:54:03;;;;;;;1.20;0.90;;;;;;;;;;5053767;28;20217;-83
2021/03/13 07:56:31;;;;;;;2.83;1.47;;;;;;;;;;5070550;28;20185;-78
2021/03/13 07:58:57;;;;;;;1.83;1.03;;;;;;;;;;5050023;28;20193;-75
2021/03/13 08:01:45;;;;;;;2.40;1.13;;;;;;;;;;5050357;28;20200;-74
2021/03/13 08:04:16;;;;;;;1.63;1.30;;;;;;;;;;5051299;28;20198;-73
2021/03/13 08:06:58;;;;;;;1.87;1.43;;;;;;;;;;5050403;28;20177;-73
2021/03/13 08:09:24;;;;;;;1.73;1.60;;;;;;;;;;5052883;28;20178;-82
2021/03/13 08:11:50;;;;;;;3.07;1.60;;;;;;;;;;5070690;28;20181;-73
2021/03/13 08:14:30;;;;;;;2.50;1.13;;;;;;;;;;5070014;28;20193;-72
2021/03/13 08:17:05;;;;;;;3.03;1.00;;;;;;;;;;5070178;28;20161;-73
2021/03/13 08:19:35;;;;;;;2.20;0.73;;;;;;;;;;5069712;28;20655;-73
2021/03/13 08:22:21;;;;;;;1.33;0.60;;;;;;;;;;5070139;28;20174;-73
2021/03/13 08:24:48;;;;;;;0.73;0.53;;;;;;;;;;5070266;28;20197;-72
2021/03/13 08:27:14;;;;;;;1.67;0.60;;;;;;;;;;5075101;28;20209;-72
2021/03/13 08:29:47;;;;;;;0.70;0.50;;;;;;;;;;5074062;28;20606;-74
2021/03/13 08:32:13;;;;;;;1.30;0.77;;;;;;;;;;5057317;28;20269;-73
2021/03/13 08:34:40;;;;;;;0.93;0.60;;;;;;;;;;5073566;28;20629;-73
2021/03/13 08:37:16;;;;;;;2.20;0.77;;;;;;;;;;5073856;28;20173;-74
2021/03/13 08:39:42;;;;;;;1.40;0.60;;;;;;;;;;5073866;28;20204;-78
2021/03/13 08:42:08;;;;;;;2.13;0.93;;;;;;;;;;5057435;28;20182;-73
2021/03/13 08:44:34;;;;;;;3.17;1.00;;;;;;;;;;5074562;28;20201;-77
2021/03/13 08:47:03;;;;;;;1.00;0.77;;;;;;;;;;5074738;28;20182;-75
2021/03/13 08:49:29;;;;;;;4.27;1.00;;;;;;;;;;5074728;28;20180;-74
2021/03/13 08:52:04;;;;;;;3.63;0.70;;;;;;;;;;5074578;28;20181;-75
2021/03/13 08:54:49;;;;;;;2.43;1.13;;;;;;;;;;5072243;28;20256;-72
2021/03/13 08:57:18;;;;;;;2.03;1.00;;;;;;;;;;5072151;28;20212;-72
2021/03/13 08:59:53;;;;;;;3.40;1.07;;;;;;;;;;5072162;28;20205;-74
2021/03/13 09:02:23;;;;;;;5.40;1.30;;;;;;;;;;5072197;28;20174;-73
2021/03/13 09:04:54;;;;;;;2.07;1.43;;;;;;;;;;5056052;28;20250;-75
2021/03/13 09:07:20;;;;;;;4.33;1.10;;;;;;;;;;5074500;28;20184;-75
2021/03/13 09:09:46;;;;;;;2.70;1.20;;;;;;;;;;5072984;28;20182;-73
2021/03/13 09:12:13;;;;;;;3.40;0.93;;;;;;;;;;5071080;28;20177;-72
2021/03/13 09:14:40;;;;;;;4.27;1.10;;;;;;;;;;5072410;28;20297;-74
2021/03/13 09:17:12;;;;;;;3.53;0.90;;;;;;;;;;5070898;28;20170;-74
2021/03/13 09:19:38;;;;;;;4.80;1.33;;;;;;;;;;5072491;28;20217;-75
2021/03/13 09:22:16;;;;;;;2.37;1.03;;;;;;;;;;5073578;28;20213;-74
2021/03/13 09:24:42;;;;;;;2.83;1.20;;;;;;;;;;5073944;28;20616;-74
2021/03/13 09:27:09;;;;;;;4.23;1.30;;;;;;;;;;5068901;28;20186;-75
2021/03/13 09:29:38;;;;;;;3.17;0.83;;;;;;;;;;5072814;28;20271;-75
2021/03/13 09:32:11;;;;;;;4.07;1.30;;;;;;;;;;5056028;28;20178;-74
2021/03/13 09:34:44;;;;;;;3.80;1.23;;;;;;;;;;5072427;28;20694;-76
2021/03/13 09:37:12;;;;;;;5.70;1.63;;;;;;;;;;5054782;28;20720;-77
2021/03/13 09:39:39;;;;;;;4.63;1.20;;;;;;;;;;5072270;28;20165;-75
2021/03/13 09:42:09;;;;;;;6.73;1.57;;;;;;;;;;5054893;28;20564;-82
2021/03/13 09:44:35;;;;;;;6.80;1.27;;;;;;;;;;5072329;28;20200;-76
2021/03/13 09:47:02;;;;;;;5.77;1.17;;;;;;;;;;5073841;28;20176;-76
2021/03/13 09:49:28;;;;;;;6.00;1.83;;;;;;;;;;5055875;28;20184;-74
2021/03/13 09:51:54;;;;;;;6.30;1.43;;;;;;;;;;5070364;28;20189;-75
2021/03/13 09:54:20;;;;;;;3.20;0.70;;;;;;;;;;5072331;28;20217;-76
2021/03/13 09:56:46;;;;;;;8.40;1.47;;;;;;;;;;5073442;28;20698;-76
2021/03/13 09:59:12;;;;;;;6.97;1.37;;;;;;;;;;5071252;28;20256;-74
2021/03/13 10:01:37;;;;;;;2.53;0.90;;;;;;;;;;5070970;28;20834;-76
2021/03/13 10:04:04;;;;;;;4.00;1.40;;;;;;;;;;5073034;28;20688;-76
2021/03/13 10:06:30;;;;;;;7.37;1.70;;;;;;;;;;5071990;28;20181;-77
2021/03/13 10:08:59;;;;;;;4.67;1.50;;;;;;;;;;5072865;28;20178;-73
2021/03/13 10:11:37;;;;;;;5.83;1.53;;;;;;;;;;5075293;28;20243;-75
2021/03/13 10:14:03;;;;;;;7.03;1.23;;;;;;;;;;5070962;28;20200;-73
2021/03/13 10:16:30;;;;;;;4.67;1.30;;;;;;;;;;5067108;28;20193;-72
2021/03/13 10:18:56;;;;;;;4.77;1.40;;;;;;;;;;5075219;28;20182;-75
2021/03/13 10:21:22;;;;;;;3.57;1.40;;;;;;;;;;5064782;28;20184;-72
2021/03/13 10:23:48;;;;;;;6.93;1.60;;;;;;;;;;5064363;28;20205;-73
2021/03/13 10:26:15;;;;;;;7.33;1.50;;;;;;;;;;5071680;28;20169;-76
2021/03/13 10:28:44;;;;;;;7.50;1.60;;;;;;;;;;5071525;28;20185;-74
2021/03/13 10:31:16;;;;;;;4.70;1.43;;;;;;;;;;5068092;28;20185;-76
2021/03/13 10:33:43;;;;;;;4.60;1.57;;;;;;;;;;5060609;28;20208;-74
2021/03/13 10:36:10;;;;;;;3.43;0.90;;;;;;;;;;5077041;28;20254;-74
2021/03/13 10:38:45;;;;;;;1.60;0.70;;;;;;;;;;5085064;28;20665;-75
2021/03/13 10:41:15;;;;;;;1.87;0.70;;;;;;;;;;5073206;28;20185;-73
2021/03/13 10:43:45;;;;;;;2.60;1.10;;;;;;;;;;5065019;28;20233;-75
2021/03/13 10:46:11;;;;;;;1.07;0.50;;;;;;;;;;5050192;28;20256;-74
2021/03/13 10:48:43;;;;;;;1.07;0.50;;;;;;;;;;5051704;28;20658;-74
2021/03/13 10:51:18;;;;;;;1.10;0.53;;;;;;;;;;5052407;28;20311;-74
2021/03/13 10:53:44;;;;;;;2.90;0.70;;;;;;;;;;5051628;28;20224;-76
2021/03/13 10:56:11;;;;;;;2.50;0.70;;;;;;;;;;5056704;28;20207;-75
2021/03/13 10:58:37;;;;;;;2.00;0.70;;;;;;;;;;5082069;28;20242;-75
2021/03/13 11:01:04;;;;;;;5.40;1.03;;;;;;;;;;5080023;28;20191;-75
2021/03/13 11:03:30;;;;;;;5.10;1.03;;;;;;;;;;5080434;28;20200;-75
2021/03/13 11:05:56;;;;;;;3.47;1.13;;;;;;;;;;5079573;28;20292;-75
2021/03/13 11:08:23;;;;;;;2.63;0.97;;;;;;;;;;5072909;28;20181;-80
2021/03/13 11:10:49;;;;;;;4.77;1.10;;;;;;;;;;5054945;28;20208;-74
2021/03/13 11:13:15;;;;;;;4.33;1.30;;;;;;;;;;5050681;28;20198;-75
2021/03/13 11:15:41;;;;;;;2.60;0.90;;;;;;;;;;5052835;28;20208;-74
2021/03/13 11:18:07;;;;;;;2.23;0.90;;;;;;;;;;5067661;28;20233;-77
2021/03/13 11:20:34;;;;;;;3.07;0.90;;;;;;;;;;5065653;28;20351;-76
2021/03/13 11:23:00;;;;;;;4.07;1.10;;;;;;;;;;5066845;28;20186;-75
2021/03/13 11:25:26;;;;;;;3.73;1.20;;;;;;;;;;5066897;28;20178;-77
2021/03/13 11:27:52;;;;;;;4.83;1.33;;;;;;;;;;5051758;28;20330;-75
2021/03/13 11:30:18;;;;;;;5.93;1.27;;;;;;;;;;5051904;28;20178;-73
2021/03/13 11:32:44;;;;;;;4.70;2.07;;;;;;;;;;5050494;28;20211;-75
2021/03/13 11:35:10;;;;;;;6.53;1.50;;;;;;;;;;5050179;28;20224;-75
2021/03/13 11:37:36;;;;;;;5.20;1.30;;;;;;;;;;5051659;28;20718;-75
2021/03/13 11:40:06;;;;;;;7.63;1.37;;;;;;;;;;5064017;28;20261;-77
2021/03/13 11:42:32;;;;;;;8.50;1.50;;;;;;;;;;5045940;28;20662;-76
2021/03/13 11:44:59;;;;;;;4.00;1.50;;;;;;;;;;5064285;28;20286;-76
2021/03/13 11:47:25;;;;;;;5.57;1.70;;;;;;;;;;5050080;28;20193;-77
2021/03/13 11:49:51;;;;;;;8.43;1.80;;;;;;;;;;5052086;28;20597;-75
2021/03/13 11:52:18;;;;;;;10.10;1.80;;;;;;;;;;5064856;28;20189;-77
2021/03/13 11:54:44;;;;;;;6.07;1.53;;;;;;;;;;5052139;28;20245;-74
2021/03/13 11:57:10;;;;;;;8.33;1.90;;;;;;;;;;5066414;28;20261;-74
2021/03/13 11:59:36;;;;;;;6.90;1.60;;;;;;;;;;5055964;28;20213;-74
2021/03/13 12:02:02;;;;;;;8.97;1.93;;;;;;;;;;5070610;28;20174;-70
2021/03/13 12:04:28;;;;;;;7.77;1.60;;;;;;;;;;5074223;28;20237;-71
2021/03/13 12:06:54;;;;;;;7.60;2.03;;;;;;;;;;5075035;28;20713;-72
2021/03/13 12:09:20;;;;;;;6.33;1.97;;;;;;;;;;5072074;28;20205;-71
2021/03/13 12:11:46;;;;;;;9.50;2.40;;;;;;;;;;5061136;28;20704;-71
2021/03/13 12:14:12;;;;;;;9.33;2.03;;;;;;;;;;5065997;28;20205;-77
2021/03/13 12:16:38;;;;;;;4.83;1.37;;;;;;;;;;5074152;28;20171;-73
2021/03/13 12:19:04;;;;;;;6.53;1.70;;;;;;;;;;5074742;28;20213;-72
2021/03/13 12:21:30;;;;;;;3.97;1.40;;;;;;;;;;5074634;28;20240;-71
2021/03/13 12:23:56;;;;;;;4.50;1.60;;;;;;;;;;5067624;28;20209;-74
2021/03/13 12:26:22;;;;;;;5.90;1.30;;;;;;;;;;5073080;28;20187;-75
2021/03/13 12:28:48;;;;;;;3.57;1.30;;;;;;;;;;5063825;28;20197;-75
2021/03/13 12:31:15;;;;;;;4.33;1.10;;;;;;;;;;5074576;28;20264;-74
2021/03/13 12:33:41;;;;;;;6.33;1.40;;;;;;;;;;5072024;28;20240;-74
2021/03/13 12:36:07;;;;;;;7.70;1.30;;;;;;;;;;5057265;28;20579;-75
2021/03/13 12:38:33;;;;;;;4.93;1.33;;;;;;;;;;5072797;28;20185;-74
2021/03/13 12:40:59;;;;;;;5.60;1.67;;;;;;;;;;5050872;28;20238;-75
2021/03/13 12:43:25;;;;;;;5.90;1.27;;;;;;;;;;5069131;28;20682;-75
2021/03/13 12:45:51;;;;;;;5.60;1.30;;;;;;;;;;5073460;28;20205;-73
2021/03/13 12:48:17;;;;;;;4.33;1.37;;;;;;;;;;5071476;28;20184;-73
2021/03/13 12:50:43;;;;;;;3.90;1.63;;;;;;;;;;5066360;28;20239;-74
2021/03/13 12:53:09;;;;;;;5.73;2.13;;;;;;;;;;5066690;28;20225;-74
2021/03/13 12:55:35;;;;;;;8.30;2.10;;;;;;;;;;5053742;28;20194;-75
2021/03/13 12:58:02;;;;;;;4.37;1.67;;;;;;;;;;5055313;28;20202;-77
2021/03/13 13:00:28;;;;;;;10.90;1.83;;;;;;;;;;5053400;28;20185;-77
2021/03/13 13:02:54;;;;;;;5.63;1.83;;;;;;;;;;5067795;28;20260;-74
2021/03/13 13:05:20;;;;;;;4.83;1.43;;;;;;;;;;5052525;28;20258;-74
2021/03/13 13:07:46;;;;;;;6.13;1.80;;;;;;;;;;5052716;28;20178;-72
2021/03/13 13:10:16;;;;;;;9.97;2.07;;;;;;;;;;5071950;28;20556;-73
2021/03/13 13:12:42;;;;;;;6.77;1.70;;;;;;;;;;5074203;28;20264;-72
2021/03/13 13:15:09;;;;;;;6.20;1.60;;;;;;;;;;5072549;28;20307;-71
2021/03/13 13:17:35;;;;;;;3.83;1.20;;;;;;;;;;5072790;28;20261;-71
2021/03/13 13:20:01;;;;;;;4.07;1.20;;;;;;;;;;5072783;28;20252;-72
2021/03/13 13:22:27;;;;;;;4.20;1.00;;;;;;;;;;5072837;28;20211;-72
2021/03/13 13:24:53;;;;;;;4.00;1.00;;;;;;;;;;5072628;28;20202;-72
2021/03/13 13:27:19;;;;;;;3.27;1.10;;;;;;;;;;5072919;28;20182;-72
2021/03/13 13:29:45;;;;;;;4.23;1.37;;;;;;;;;;5072555;28;20182;-72
2021/03/13 13:32:11;;;;;;;3.20;1.10;;;;;;;;;;5055897;28;20563;-71
2021/03/13 13:34:37;;;;;;;5.63;1.20;;;;;;;;;;5072228;28;20217;-73
2021/03/13 13:37:03;;;;;;;5.97;1.40;;;;;;;;;;5072438;28;20257;-72
2021/03/13 13:39:29;;;;;;;3.93;1.30;;;;;;;;;;5073597;28;20239;-72
2021/03/13 13:41:55;;;;;;;5.40;1.00;;;;;;;;;;5073772;28;20173;-72
2021/03/13 13:44:21;;;;;;;7.57;1.37;;;;;;;;;;5072611;28;20200;-72
2021/03/13 13:46:47;;;;;;;3.20;1.10;;;;;;;;;;5073562;28;20247;-72
2021/03/13 13:49:12;;;;;;;6.13;1.87;;;;;;;;;;5071965;28;20256;-72
2021/03/13 13:51:38;;;;;;;3.87;1.53;;;;;;;;;;5072349;28;20178;-73
2021/03/13 13:54:05;;;;;;;4.47;1.60;;;;;;;;;;5073009;28;20209;-73
2021/03/13 13:56:31;;;;;;;2.93;1.23;;;;;;;;;;5072138;28;20202;-72
2021/03/13 13:58:58;;;;;;;3.93;1.40;;;;;;;;;;5072185;28;20173;-72
2021/03/13 14:01:24;;;;;;;7.37;1.57;;;;;;;;;;5071989;28;20230;-73
2021/03/13 14:03:50;;;;;;;3.43;1.43;;;;;;;;;;5072914;28;20281;-74
2021/03/13 14:06:16;;;;;;;6.93;1.73;;;;;;;;;;5073261;28;20657;-72
2021/03/13 14:08:42;;;;;;;6.67;1.70;;;;;;;;;;5071921;28;20178;-74
2021/03/13 14:11:08;;;;;;;5.57;1.60;;;;;;;;;;5072965;28;20223;-73
2021/03/13 14:13:33;;;;;;;3.37;1.13;;;;;;;;;;5072676;28;20197;-72
2021/03/13 14:15:59;;;;;;;6.00;1.53;;;;;;;;;;5072925;28;20212;-72
2021/03/13 14:18:25;;;;;;;5.33;2.43;;;;;;;;;;5071807;28;20257;-73
2021/03/13 14:20:51;;;;;;;5.73;1.90;;;;;;;;;;5072129;28;20591;-72
2021/03/13 14:23:18;;;;;;;7.07;1.83;;;;;;;;;;5072574;28;20854;-73
2021/03/13 14:25:44;;;;;;;5.40;1.70;;;;;;;;;;5072878;28;20178;-73
2021/03/13 14:28:10;;;;;;;4.27;1.63;;;;;;;;;;5071742;28;20189;-72
2021/03/13 14:30:36;;;;;;;5.50;1.60;;;;;;;;;;5071637;28;20205;-72
2021/03/13 14:33:02;;;;;;;5.57;1.63;;;;;;;;;;5071338;28;20223;-72
2021/03/13 14:35:28;;;;;;;5.53;2.00;;;;;;;;;;5071418;28;20329;-72
2021/03/13 14:37:54;;;;;;;4.20;1.67;;;;;;;;;;5071383;28;20553;-72
2021/03/13 14:40:20;;;;;;;5.27;1.60;;;;;;;;;;5071753;28;20169;-72
2021/03/13 14:42:46;;;;;;;4.10;1.33;;;;;;;;;;5071336;28;20721;-72